M I D A S
Marine Information and Data Acquisition System
Tripno 426 of the Zeeleeuw from 2003-02-07 07:51:14 to 2003-02-07 13:05:54
Back to CruiseResearch ActivitiesStationsMapUnderway DataData graphs

EquipmentUnitsComment
TimeDGPSUTC
LatitudeDGPSDM.mWGS84
LongitudeDGPSDM.mWGS84
HeadingGyrodeg 
SOGDGPSknotsSpeed over ground
COGDGPSdegCourse over ground
DepthEcho soundermeters200 kHz
Missing or incorrect values are displayed as -999
Navigation data collected by the RV Zeeleeuw from 2003-02-07 07:51:14 to 2003-02-07 13:05:54
                                                                                    Next 1000 lines
Time Latitude Longitude Heading SOG COG Depth
2003-02-07 07:51:21 51°13.627 2°56.028 111.5 2.9 292.7 -999
2003-02-07 07:51:26 51°13.629 2°56.021 111.5 3.2 292.4 -999
2003-02-07 07:51:31 51°13.631 2°56.014 111.5 3.4 292.1 -999
2003-02-07 07:51:36 51°13.633 2°56.006 111.4 3.6 291.8 -999
2003-02-07 07:51:41 51°13.635 2°55.998 111 3.9 290.9 -999
2003-02-07 07:51:46 51°13.637 2°55.989 110.6 4.1 290.2 -999
2003-02-07 07:51:51 51°13.639 2°55.98 110.3 4.2 289.8 -999
2003-02-07 07:51:56 51°13.641 2°55.971 109.6 4.2 288.8 -999
2003-02-07 07:52:01 51°13.642 2°55.962 108.8 4.3 288.3 -999
2003-02-07 07:52:06 51°13.644 2°55.953 108.1 4.3 287 -999
2003-02-07 07:52:11 51°13.645 2°55.945 107.4 4.2 286.2 -999
2003-02-07 07:52:16 51°13.647 2°55.937 107.1 3.8 285.9 -999
2003-02-07 07:52:21 51°13.648 2°55.929 106.9 3.6 285.6 -999
2003-02-07 07:52:25 51°13.649 2°55.924 107.1 3.3 285.8 -999
2003-02-07 07:52:31 51°13.651 2°55.916 107.6 3.1 285.8 -999
2003-02-07 07:52:36 51°13.652 2°55.91 107.9 3 286 -999
2003-02-07 07:52:41 51°13.653 2°55.904 108 2.9 286.2 -999
2003-02-07 07:52:46 51°13.655 2°55.898 108 2.9 286.4 -999
2003-02-07 07:52:51 51°13.656 2°55.892 108 2.9 287 -999
2003-02-07 07:52:56 51°13.657 2°55.885 108.1 2.9 286.8 -999
2003-02-07 07:53:01 51°13.658 2°55.879 108.1 2.9 286.9 -999
2003-02-07 07:53:06 51°13.659 2°55.873 108 3 287.3 -999
2003-02-07 07:53:11 51°13.661 2°55.866 107.7 3.1 287.6 -999
2003-02-07 07:53:16 51°13.662 2°55.86 107.2 3.1 288.1 -999
2003-02-07 07:53:20 51°13.663 2°55.854 106.6 3.2 287.9 -999
2003-02-07 07:53:25 51°13.664 2°55.847 105.8 3.3 287.3 -999
2003-02-07 07:53:31 51°13.666 2°55.839 105.2 3.3 287.1 -999
2003-02-07 07:53:36 51°13.667 2°55.832 104.3 3.3 286.7 -999
2003-02-07 07:53:41 51°13.668 2°55.825 103.3 3.3 286.4 -999
2003-02-07 07:53:46 51°13.669 2°55.818 102.1 3.2 285.5 -999
2003-02-07 07:53:51 51°13.67 2°55.811 100.9 3.2 284.6 -999
2003-02-07 07:53:56 51°13.671 2°55.805 99.7 3.2 283.5 -999
2003-02-07 07:54:01 51°13.672 2°55.798 98.4 3.1 282.7 -999
2003-02-07 07:54:06 51°13.673 2°55.791 96.9 3.1 281.8 -999
2003-02-07 07:54:10 51°13.673 2°55.786 95.4 3.1 280.8 -999
2003-02-07 07:54:16 51°13.674 2°55.778 93.8 2.9 278.7 -999
2003-02-07 07:54:21 51°13.674 2°55.772 92.3 2.9 277.1 -999
2003-02-07 07:54:25 51°13.675 2°55.767 90.8 2.8 276.3 -999
2003-02-07 07:54:31 51°13.675 2°55.761 89 2.6 275.3 -999
2003-02-07 07:54:36 51°13.675 2°55.756 86.5 2.2 274.6 -999
2003-02-07 07:54:41 51°13.675 2°55.753 83.4 1.9 274.5 -999
2003-02-07 07:54:46 51°13.675 2°55.75 80 1.3 276.4 -999
2003-02-07 07:54:51 51°13.675 2°55.749 75.9 1 280.1 -999
2003-02-07 07:54:56 51°13.676 2°55.748 71.5 0.6 292.5 10.4
2003-02-07 07:55:00 51°13.676 2°55.748 67.9 0.4 317.2 10.5
2003-02-07 07:55:05 51°13.677 2°55.748 63.2 0.4 343.2 10.9
2003-02-07 07:55:10 51°13.677 2°55.748 58.5 0.5 8.1 11.3
2003-02-07 07:55:15 51°13.678 2°55.749 53.6 0.7 20.1 11.4
2003-02-07 07:55:21 51°13.68 2°55.75 48.4 0.9 23.3 -999
2003-02-07 07:55:26 51°13.681 2°55.751 42.1 1 23.5 -999
2003-02-07 07:55:31 51°13.683 2°55.752 36.8 1.2 21.5 -999
2003-02-07 07:55:36 51°13.684 2°55.752 31.3 1.4 18.1 -999
2003-02-07 07:55:41 51°13.687 2°55.753 25.8 1.5 15.1 -999
2003-02-07 07:55:46 51°13.689 2°55.754 20.3 1.6 11.9 -999
2003-02-07 07:55:51 51°13.691 2°55.754 14.8 1.8 5.9 -999
2003-02-07 07:55:56 51°13.694 2°55.754 9.2 1.9 2.3 -999
2003-02-07 07:56:01 51°13.697 2°55.753 3.9 2.1 358.4 -999
2003-02-07 07:56:06 51°13.7 2°55.752 358.5 2.2 353.2 -999
2003-02-07 07:56:11 51°13.704 2°55.751 353 2.3 348.8 -999
2003-02-07 07:56:16 51°13.707 2°55.749 347 2.5 343.7 -999
2003-02-07 07:56:21 51°13.711 2°55.746 340.9 2.7 339.5 -999
2003-02-07 07:56:25 51°13.714 2°55.744 335.3 2.9 333.7 -999
2003-02-07 07:56:31 51°13.719 2°55.739 331.6 3.2 328.7 -999
2003-02-07 07:56:36 51°13.723 2°55.735 329.9 3.4 327 -999
2003-02-07 07:56:40 51°13.726 2°55.731 329.2 3.6 325.6 10.6
2003-02-07 07:56:45 51°13.73 2°55.726 329.2 3.6 325.4 -999
2003-02-07 07:56:50 51°13.735 2°55.72 329.9 4 325 -999
2003-02-07 07:56:55 51°13.739 2°55.715 330.9 4.1 325.5 -999
2003-02-07 07:57:00 51°13.744 2°55.71 331.5 4.3 326 10.1
2003-02-07 07:57:05 51°13.749 2°55.704 331.8 4.4 326.5 10.1
2003-02-07 07:57:10 51°13.755 2°55.698 331.9 4.6 326.7 10.1
2003-02-07 07:57:15 51°13.76 2°55.692 332 4.7 326.9 10
2003-02-07 07:57:19 51°13.765 2°55.688 332.3 4.9 327.2 10.1
2003-02-07 07:57:25 51°13.772 2°55.68 332.6 5 327.5 10.1
2003-02-07 07:57:30 51°13.778 2°55.674 333.1 5 327.8 10.1
2003-02-07 07:57:35 51°13.784 2°55.668 333.4 5.1 328.3 10.1
2003-02-07 07:57:40 51°13.791 2°55.662 333.8 5.3 329.1 -999
2003-02-07 07:57:44 51°13.796 2°55.658 335 5.4 330.1 9.7
2003-02-07 07:57:49 51°13.803 2°55.652 336.2 5.4 331.2 10
2003-02-07 07:57:55 51°13.811 2°55.646 337.5 5.5 332.9 10
2003-02-07 07:58:00 51°13.818 2°55.64 338.6 5.6 333.9 -999
2003-02-07 07:58:04 51°13.823 2°55.636 339.3 5.6 334.8 9.9
2003-02-07 07:58:10 51°13.832 2°55.629 339.6 5.7 335.6 9.9
2003-02-07 07:58:15 51°13.839 2°55.624 339.6 5.8 335.7 -999
2003-02-07 07:58:20 51°13.847 2°55.619 339.6 5.8 335.8 -999
2003-02-07 07:58:24 51°13.853 2°55.615 339.8 5.9 335.8 -999
2003-02-07 07:58:30 51°13.862 2°55.609 339.9 5.9 335.8 9.7
2003-02-07 07:58:35 51°13.87 2°55.604 339.9 5.9 336 9.5
2003-02-07 07:58:40 51°13.877 2°55.598 340.1 6 335.8 9.5
2003-02-07 07:58:45 51°13.885 2°55.593 340.4 6 335.8 9.3
2003-02-07 07:58:48 51°13.89 2°55.59 340.2 6.1 335.9 9.2
2003-02-07 07:58:55 51°13.901 2°55.582 339.6 6.1 335.5 -999
2003-02-07 07:59:00 51°13.908 2°55.576 339.3 6.1 335 -999
2003-02-07 07:59:05 51°13.916 2°55.571 339.3 6.1 335 -999
2003-02-07 07:59:10 51°13.924 2°55.565 339.5 6.1 335.4 9.7
2003-02-07 07:59:13 51°13.929 2°55.562 339.8 6.2 335.7 9.5
2003-02-07 07:59:20 51°13.94 2°55.554 339.9 6.2 335.8 9.7
2003-02-07 07:59:25 51°13.948 2°55.549 339.9 6.2 335.7 9.6
2003-02-07 07:59:29 51°13.954 2°55.544 340 6.2 335.6 9.6
2003-02-07 07:59:35 51°13.964 2°55.538 340.1 6.2 335.7 9.6
2003-02-07 07:59:40 51°13.971 2°55.532 339.8 6.3 336 -999
2003-02-07 07:59:45 51°13.979 2°55.527 339.6 6.3 335.8 9.6
2003-02-07 07:59:50 51°13.987 2°55.521 339.5 6.3 335.7 -999
2003-02-07 07:59:55 51°13.995 2°55.515 339.6 6.3 336 9.5
2003-02-07 08:00:00 51°14.003 2°55.509 339.6 6.3 336 9.2
2003-02-07 08:00:05 51°14.011 2°55.504 339.6 6.3 335.9 9.2
2003-02-07 08:00:10 51°14.019 2°55.498 339.6 6.3 335.9 9.6
2003-02-07 08:00:15 51°14.027 2°55.492 339.3 6.3 335.8 9.5
2003-02-07 08:00:20 51°14.035 2°55.486 339 6.4 335.6 9.6
2003-02-07 08:00:25 51°14.043 2°55.48 338.9 6.4 335.6 9.4
2003-02-07 08:00:30 51°14.051 2°55.474 338.6 6.4 335.3 9.6
2003-02-07 08:00:35 51°14.059 2°55.469 338.3 6.4 335.2 9.6
2003-02-07 08:00:40 51°14.067 2°55.462 338.2 6.4 334.8 9.4
2003-02-07 08:00:44 51°14.073 2°55.458 338.2 6.4 334.6 9.5
2003-02-07 08:00:50 51°14.083 2°55.45 337.6 6.4 334.2 -999
2003-02-07 08:00:55 51°14.091 2°55.444 337.3 6.4 333.9 9.6
2003-02-07 08:01:00 51°14.099 2°55.438 337.1 6.5 333.5 9.7
2003-02-07 08:01:05 51°14.107 2°55.432 337.2 6.5 333.5 9.7
2003-02-07 08:01:10 51°14.115 2°55.425 337.2 6.5 333.3 9.7
2003-02-07 08:01:15 51°14.123 2°55.419 336.7 6.5 333.1 9.4
2003-02-07 08:01:20 51°14.131 2°55.412 335.3 6.5 332.5 9.6
2003-02-07 08:01:25 51°14.139 2°55.405 334 6.5 331.4 9.3
2003-02-07 08:01:28 51°14.144 2°55.401 332.8 6.5 329.9 9.6
2003-02-07 08:01:35 51°14.154 2°55.39 331.9 6.5 329.1 9.7
2003-02-07 08:01:40 51°14.162 2°55.383 331.4 6.5 328.2 -999
2003-02-07 08:01:45 51°14.169 2°55.375 330.2 6.5 327.5 -999
2003-02-07 08:01:50 51°14.176 2°55.367 329.7 6.5 326.5 -999
2003-02-07 08:01:55 51°14.184 2°55.359 329.8 6.5 326.1 -999
2003-02-07 08:02:01 51°14.193 2°55.349 329.3 6.5 326.1 -999
2003-02-07 08:02:05 51°14.199 2°55.342 329 6.5 325.2 9.8
2003-02-07 08:02:10 51°14.206 2°55.334 329.1 6.5 325.1 -999
2003-02-07 08:02:16 51°14.214 2°55.324 328.5 6.5 324.5 -999
2003-02-07 08:02:20 51°14.22 2°55.317 326.5 6.5 323.4 -999
2003-02-07 08:02:25 51°14.227 2°55.308 324.3 6.5 321.9 -999
2003-02-07 08:02:30 51°14.234 2°55.298 322.6 6.5 319.9 9.9
2003-02-07 08:02:35 51°14.241 2°55.289 321.7 6.5 319 9.8
2003-02-07 08:02:40 51°14.247 2°55.279 321 6.5 317.7 9.6
2003-02-07 08:02:45 51°14.254 2°55.269 320.3 6.5 316.6 9.8
2003-02-07 08:02:48 51°14.258 2°55.263 319.2 6.5 315.5 9.9
2003-02-07 08:02:55 51°14.267 2°55.248 317.8 6.5 315.3 -999
2003-02-07 08:03:01 51°14.274 2°55.236 316 6.5 313.4 -999
2003-02-07 08:03:05 51°14.278 2°55.227 314.7 6.5 311.9 -999
2003-02-07 08:03:11 51°14.286 2°55.214 313.8 6.5 310.9 9.7
2003-02-07 08:03:15 51°14.29 2°55.205 312.8 6.5 309.8 -999
2003-02-07 08:03:20 51°14.296 2°55.194 312.3 6.5 309 -999
2003-02-07 08:03:25 51°14.301 2°55.183 312 6.5 308.4 9.8
2003-02-07 08:03:30 51°14.307 2°55.172 312 6.5 308 9.9
2003-02-07 08:03:35 51°14.312 2°55.16 311.9 6.6 307.5 -999
2003-02-07 08:03:40 51°14.318 2°55.148 311.3 6.6 307.3 10
2003-02-07 08:03:45 51°14.323 2°55.136 310.7 6.6 306.7 9.8
2003-02-07 08:03:48 51°14.326 2°55.129 310.3 6.7 306.4 9.9
2003-02-07 08:03:55 51°14.334 2°55.112 309.8 6.7 306.1 10
2003-02-07 08:04:00 51°14.34 2°55.1 309.5 6.7 305.7 9.9
2003-02-07 08:04:05 51°14.345 2°55.087 309.1 6.8 305.1 10
2003-02-07 08:04:10 51°14.35 2°55.075 308.7 6.9 304.7 10.2
2003-02-07 08:04:15 51°14.356 2°55.062 308.4 7 304.3 10.3
2003-02-07 08:04:19 51°14.36 2°55.051 308 7.1 304 10.5
2003-02-07 08:04:24 51°14.366 2°55.037 307.4 7.2 303.8 10.2
2003-02-07 08:04:29 51°14.371 2°55.023 305.9 7.4 302.4 10.2
2003-02-07 08:04:35 51°14.377 2°55.006 303.1 7.4 301.3 10.1
2003-02-07 08:04:39 51°14.38 2°54.993 298.2 7.5 297.2 10.3
2003-02-07 08:04:45 51°14.384 2°54.975 293 7.5 295.5 10.3
2003-02-07 08:04:49 51°14.386 2°54.962 288 7.5 295.5 10.4
2003-02-07 08:04:55 51°14.388 2°54.942 284.3 7.5 283.9 10.6
2003-02-07 08:05:00 51°14.389 2°54.926 282.2 7.5 280.7 10.6
2003-02-07 08:05:05 51°14.391 2°54.909 280.5 7.6 277.6 10.7
2003-02-07 08:05:09 51°14.391 2°54.895 279.8 7.7 276.5 10.7
2003-02-07 08:05:14 51°14.392 2°54.878 280.3 7.8 275.8 10.7
2003-02-07 08:05:20 51°14.394 2°54.857 280.2 7.8 276 10.7
2003-02-07 08:05:25 51°14.395 2°54.84 279.5 7.9 275.3 10.5
2003-02-07 08:05:30 51°14.396 2°54.822 279.4 8 275 10.5
2003-02-07 08:05:35 51°14.397 2°54.804 279.5 8 274.8 10.4
2003-02-07 08:05:39 51°14.397 2°54.79 279.5 8.1 275 10.5
2003-02-07 08:05:44 51°14.398 2°54.772 279.8 8.1 275 10.6
2003-02-07 08:05:49 51°14.399 2°54.754 280 8.2 275.1 10.1
2003-02-07 08:05:55 51°14.4 2°54.732 280.1 8.2 275 10.4
2003-02-07 08:05:59 51°14.401 2°54.718 279.3 8.2 275 10.2
2003-02-07 08:06:04 51°14.401 2°54.701 277.8 8 273.7 10.4
2003-02-07 08:06:09 51°14.402 2°54.685 275.8 8 273.7 10.5
2003-02-07 08:06:14 51°14.402 2°54.669 273.7 7.1 269.9 10.8
2003-02-07 08:06:19 51°14.401 2°54.655 271.1 6.9 268.7 10.9
2003-02-07 08:06:25 51°14.4 2°54.638 268.5 6.8 267.8 10.6
2003-02-07 08:06:29 51°14.399 2°54.627 266.1 6.8 267.8 10.7
2003-02-07 08:06:35 51°14.398 2°54.612 263.9 6.1 263 10.8
2003-02-07 08:06:40 51°14.396 2°54.599 261.6 5.9 260.8 10.9
2003-02-07 08:06:45 51°14.394 2°54.588 259.5 5.6 258.4 10.8
2003-02-07 08:06:49 51°14.393 2°54.579 257.6 5.4 257.1 10.9
2003-02-07 08:06:54 51°14.391 2°54.568 255.8 5.2 254.5 10.9
2003-02-07 08:06:58 51°14.39 2°54.559 254.3 5 253.5 10.7
2003-02-07 08:07:05 51°14.387 2°54.545 252.8 4.9 252.3 10.3
2003-02-07 08:07:09 51°14.385 2°54.538 251.4 4.7 251.4 10.1
2003-02-07 08:07:15 51°14.382 2°54.526 250.2 4.7 251.4 10.3
2003-02-07 08:07:20 51°14.38 2°54.518 248.9 4.4 248.3 10
2003-02-07 08:07:24 51°14.378 2°54.511 247.6 4.3 247 9.7
2003-02-07 08:07:30 51°14.375 2°54.501 246.5 4.2 246.5 9.7
2003-02-07 08:07:35 51°14.373 2°54.493 245.6 4.1 244.9 9.7
2003-02-07 08:07:38 51°14.371 2°54.488 244.4 4 243.5 9.6
2003-02-07 08:07:45 51°14.368 2°54.477 243.4 3.9 243.6 9.9
2003-02-07 08:07:49 51°14.366 2°54.472 242.8 3.8 242.4 9.9
2003-02-07 08:07:55 51°14.363 2°54.463 242.1 3.7 241.6 9.7
2003-02-07 08:08:00 51°14.36 2°54.457 241.7 3.6 241.7 9.4
2003-02-07 08:08:05 51°14.358 2°54.45 241.3 3.5 240.8 9.3
2003-02-07 08:08:09 51°14.356 2°54.445 240.8 3.4 240.3 9.5
2003-02-07 08:08:14 51°14.354 2°54.438 240.8 3.3 241 9.7
2003-02-07 08:08:20 51°14.351 2°54.431 240.9 3.3 240.9 9.5
2003-02-07 08:08:25 51°14.349 2°54.425 240.9 3.2 240.8 9.6
2003-02-07 08:08:29 51°14.347 2°54.42 241.1 3.2 240.5 9.4
2003-02-07 08:08:34 51°14.345 2°54.414 241 3.1 239.7 9.4
2003-02-07 08:08:40 51°14.343 2°54.407 240.9 3.1 239.7 9.5
2003-02-07 08:08:44 51°14.341 2°54.403 240.9 3 239.5 9.4
2003-02-07 08:08:50 51°14.339 2°54.396 240.9 2.9 240.2 9.3
2003-02-07 08:08:55 51°14.337 2°54.391 241.2 2.9 240.1 9.3
2003-02-07 08:08:59 51°14.335 2°54.387 241.5 2.9 239.9 9.4
2003-02-07 08:09:05 51°14.333 2°54.38 241.9 2.8 240.8 9.3
2003-02-07 08:09:10 51°14.331 2°54.375 242.4 2.7 241.1 9.3
2003-02-07 08:09:14 51°14.33 2°54.371 242.9 2.7 241.3 9.4
2003-02-07 08:09:20 51°14.328 2°54.365 243.2 2.7 241.7 9.3
2003-02-07 08:09:25 51°14.326 2°54.36 243.8 2.7 242 9.3
2003-02-07 08:09:28 51°14.325 2°54.357 244.4 2.6 242.7 9.4
2003-02-07 08:09:34 51°14.323 2°54.351 244.8 2.5 242.7 9.5
2003-02-07 08:09:40 51°14.321 2°54.345 245.4 2.5 243.5 9.5
2003-02-07 08:09:45 51°14.32 2°54.34 245.9 2.5 243.1 9.4
2003-02-07 08:09:50 51°14.318 2°54.335 246.2 2.5 244.4 9.4
2003-02-07 08:09:55 51°14.317 2°54.33 246.7 2.4 244.1 9.5
2003-02-07 08:09:59 51°14.316 2°54.327 247.2 2.4 244.5 9.6
2003-02-07 08:10:05 51°14.314 2°54.321 247.9 2.4 243.9 9.5
2003-02-07 08:10:09 51°14.313 2°54.317 248.6 2.4 243.9 9.4
2003-02-07 08:10:15 51°14.311 2°54.312 249 2.3 244.8 9.3
2003-02-07 08:10:20 51°14.31 2°54.308 249.5 2.2 246.2 9.4
2003-02-07 08:10:25 51°14.309 2°54.303 250.2 2.2 246.1 9.5
2003-02-07 08:10:30 51°14.308 2°54.299 250.4 2.2 245.8 9.4
2003-02-07 08:10:35 51°14.306 2°54.293 250.7 2.2 245.8 9.3
2003-02-07 08:10:38 51°14.305 2°54.289 250.8 2.9 247.1 9.3
2003-02-07 08:10:45 51°14.302 2°54.278 250.4 3.6 247.4 9.4
2003-02-07 08:10:50 51°14.299 2°54.267 249.8 4.1 247.1 9.4
2003-02-07 08:10:54 51°14.296 2°54.257 249.4 5.8 246.4 9.3
2003-02-07 08:11:00 51°14.291 2°54.239 248.6 6.6 245.7 9.3
2003-02-07 08:11:05 51°14.286 2°54.223 248.4 7.6 245.7 9.3
2003-02-07 08:11:08 51°14.283 2°54.212 249.6 8.5 245.8 9.3
2003-02-07 08:11:15 51°14.276 2°54.184 250.7 9.3 246.7 9.1
2003-02-07 08:11:19 51°14.272 2°54.167 251.5 9.3 246.7 9
2003-02-07 08:11:25 51°14.265 2°54.14 252.1 10.4 248 9
2003-02-07 08:11:30 51°14.26 2°54.117 252.9 11.1 249.1 8.9
2003-02-07 08:11:35 51°14.254 2°54.093 253.9 11.4 249.7 9
2003-02-07 08:11:40 51°14.249 2°54.068 255.2 11.6 250.7 9.1
2003-02-07 08:11:45 51°14.244 2°54.042 256.2 11.9 251.4 9
2003-02-07 08:11:49 51°14.24 2°54.021 256.7 12.2 252.5 8.8
2003-02-07 08:11:55 51°14.234 2°53.99 256.9 12.3 252.7 8.9
2003-02-07 08:12:00 51°14.229 2°53.963 257.4 12.3 252.7 8.9
2003-02-07 08:12:05 51°14.223 2°53.936 255.8 12.7 252.6 8.8
2003-02-07 08:12:08 51°14.219 2°53.92 254.1 12.8 251.3 9
2003-02-07 08:12:13 51°14.213 2°53.893 252.5 13 249.1 8.8
2003-02-07 08:12:19 51°14.205 2°53.861 251.1 13 249.1 9
2003-02-07 08:12:25 51°14.196 2°53.829 250.4 13.1 247.1 8.9
2003-02-07 08:12:29 51°14.19 2°53.808 248.9 13.1 246.3 8.9
2003-02-07 08:12:35 51°14.181 2°53.776 247.7 13.2 245.9 9
2003-02-07 08:12:40 51°14.172 2°53.75 246.6 13.2 244 9.1
2003-02-07 08:12:44 51°14.165 2°53.73 245.4 13.2 243.6 9.1
2003-02-07 08:12:49 51°14.156 2°53.704 243.5 13.2 241.6 9
2003-02-07 08:12:55 51°14.145 2°53.674 242.4 13.3 240.1 9
2003-02-07 08:13:00 51°14.135 2°53.649 240.6 13.2 238.3 8.9
2003-02-07 08:13:04 51°14.127 2°53.63 239.3 13.2 236.8 9.1
2003-02-07 08:13:10 51°14.115 2°53.6 239.2 13.2 236.7 9.2
2003-02-07 08:13:15 51°14.104 2°53.577 238.6 13.2 236.4 8.9
2003-02-07 08:13:19 51°14.096 2°53.557 238.1 13.2 235.8 9.1
2003-02-07 08:13:25 51°14.084 2°53.528 238.8 13.3 236.3 9.2
2003-02-07 08:13:28 51°14.078 2°53.513 239.1 13.3 236.5 9.1
2003-02-07 08:13:35 51°14.064 2°53.479 239.4 13.3 236.7 9.1
2003-02-07 08:13:40 51°14.054 2°53.454 239.7 13.3 236.9 9.2
2003-02-07 08:13:45 51°14.044 2°53.429 239.9 13.3 237.1 9.2
2003-02-07 08:13:50 51°14.034 2°53.405 240.2 13.3 237.3 9.1
2003-02-07 08:13:55 51°14.024 2°53.38 240.1 13.3 237.3 9.2
2003-02-07 08:14:00 51°14.014 2°53.355 240.2 13.3 237.2 9.1
2003-02-07 08:14:04 51°14.006 2°53.335 239.9 13.3 237.2 9.3
2003-02-07 08:14:10 51°13.994 2°53.306 240.1 13.3 237.2 9.1
2003-02-07 08:14:15 51°13.984 2°53.281 240.1 13.3 237.4 9.5
2003-02-07 08:14:19 51°13.976 2°53.261 240.3 13.3 237.4 9.3
2003-02-07 08:14:25 51°13.965 2°53.231 240.6 13.3 237.8 9.4
2003-02-07 08:14:29 51°13.957 2°53.211 240.6 13.3 237.8 9.2
2003-02-07 08:14:35 51°13.945 2°53.181 241 13.3 238.2 9.3
2003-02-07 08:14:39 51°13.937 2°53.161 241.5 13.3 238.6 9.3
2003-02-07 08:14:45 51°13.926 2°53.131 242.4 13.3 238.8 9.5
2003-02-07 08:14:49 51°13.919 2°53.11 243 13.3 238.8 9.7
2003-02-07 08:14:55 51°13.908 2°53.079 244.1 13.4 241.1 9.6
2003-02-07 08:15:00 51°13.9 2°53.053 245.1 13.4 241.5 9.4
2003-02-07 08:15:04 51°13.893 2°53.031 246.1 13.4 243.1 9.4
2003-02-07 08:15:09 51°13.885 2°53.005 247.6 13.4 243.1 9.7
2003-02-07 08:15:13 51°13.879 2°52.983 248.4 13.4 244.9 9.6
2003-02-07 08:15:17 51°13.873 2°52.962 248.8 13.4 245.3 9.9
2003-02-07 08:15:24 51°13.862 2°52.924 249.3 13.4 245.3 9.8
2003-02-07 08:15:29 51°13.854 2°52.897 249.2 13.4 245.8 9.9
2003-02-07 08:15:35 51°13.845 2°52.864 248.6 13.4 245.8 9.7
2003-02-07 08:15:40 51°13.837 2°52.837 248.4 13.4 245.5 9.6
2003-02-07 08:15:45 51°13.83 2°52.81 248.8 13.4 245.5 10
2003-02-07 08:15:50 51°13.822 2°52.784 248.3 13.4 244.9 10
2003-02-07 08:15:54 51°13.815 2°52.762 248 13.4 244.8 9.9
2003-02-07 08:16:00 51°13.806 2°52.73 247.7 13.4 244.5 9.8
2003-02-07 08:16:05 51°13.798 2°52.704 247.5 13.4 244.6 9.9
2003-02-07 08:16:10 51°13.789 2°52.677 247.3 13.4 244.6 9.8
2003-02-07 08:16:15 51°13.781 2°52.651 246.8 13.4 243.8 9.8
2003-02-07 08:16:20 51°13.773 2°52.625 246.4 13.3 243 10.1
2003-02-07 08:16:25 51°13.764 2°52.599 245.5 13.3 242.5 9.9
2003-02-07 08:16:28 51°13.759 2°52.583 245 13.3 242 9.9
2003-02-07 08:16:35 51°13.746 2°52.547 244.3 13.3 241.6 9.7
2003-02-07 08:16:39 51°13.739 2°52.527 243.3 13.3 240.5 9.8
2003-02-07 08:16:45 51°13.728 2°52.496 242.6 13.2 240.1 9.9
2003-02-07 08:16:48 51°13.722 2°52.481 242 13.3 239.3 10
2003-02-07 08:16:55 51°13.709 2°52.446 241.2 13.3 238.8 10
2003-02-07 08:16:59 51°13.701 2°52.427 240.2 13.3 238.8 10.2
2003-02-07 08:17:05 51°13.689 2°52.397 240.3 13.3 237.5 10
2003-02-07 08:17:10 51°13.679 2°52.372 240.2 13.3 237.6 10
2003-02-07 08:17:14 51°13.671 2°52.352 239.7 13.3 237.1 10.3
2003-02-07 08:17:20 51°13.659 2°52.323 240 13.3 237 10.2
2003-02-07 08:17:25 51°13.649 2°52.298 240.1 13.3 237.1 10.2
2003-02-07 08:17:28 51°13.643 2°52.283 240.3 13.3 237.4 10.2
2003-02-07 08:17:35 51°13.629 2°52.248 240.6 13.3 237.4 10.1
2003-02-07 08:17:39 51°13.621 2°52.228 241.2 13.3 237.4 10.1
2003-02-07 08:17:45 51°13.61 2°52.198 241.8 13.3 238.2 10.2
2003-02-07 08:17:50 51°13.601 2°52.173 242.4 13.3 239.2 10.1
2003-02-07 08:17:55 51°13.592 2°52.147 243.3 13.3 239.2 10
2003-02-07 08:18:00 51°13.583 2°52.121 244.1 13.3 240.9 10
2003-02-07 08:18:05 51°13.574 2°52.095 245.2 13.3 241.7 10
2003-02-07 08:18:10 51°13.566 2°52.069 246.4 13.3 242.1 10.2
2003-02-07 08:18:15 51°13.558 2°52.042 247.6 13.3 242.1 10.1
2003-02-07 08:18:19 51°13.552 2°52.021 248.3 13.3 244.8 10.1
2003-02-07 08:18:25 51°13.543 2°51.989 248.5 13.3 245 10.2
2003-02-07 08:18:28 51°13.538 2°51.973 249 13.3 245 10.2
2003-02-07 08:18:34 51°13.529 2°51.941 249.4 13.3 245.9 10.3
2003-02-07 08:18:40 51°13.52 2°51.909 249.2 13.3 245.9 10.3
2003-02-07 08:18:44 51°13.514 2°51.887 248.6 13.3 245.6 10.2
2003-02-07 08:18:48 51°13.507 2°51.866 248.2 13.3 244.9 10.4
2003-02-07 08:18:55 51°13.496 2°51.829 247.4 13.3 244.9 10.2
2003-02-07 08:18:59 51°13.489 2°51.808 246.3 13.3 244.9 10.2
2003-02-07 08:19:05 51°13.479 2°51.777 245.7 13.3 243.1 10.1
2003-02-07 08:19:10 51°13.47 2°51.751 244.6 13.3 241.9 10
2003-02-07 08:19:15 51°13.461 2°51.726 244.1 13.3 241.2 10.3
2003-02-07 08:19:19 51°13.454 2°51.705 244.1 13.3 241 10.3
2003-02-07 08:19:24 51°13.445 2°51.679 244 13.3 241 10.3
2003-02-07 08:19:28 51°13.438 2°51.659 243.9 13.3 240.9 10.3
2003-02-07 08:19:35 51°13.425 2°51.623 243.8 13.3 240.8 10.1
2003-02-07 08:19:40 51°13.416 2°51.597 244 13.3 241 10.1
2003-02-07 08:19:45 51°13.407 2°51.572 243.8 13.3 240.8 10.3
2003-02-07 08:19:49 51°13.4 2°51.551 243.9 13.3 240.8 10.2
2003-02-07 08:19:54 51°13.39 2°51.526 243.8 13.3 240.5 10.4
2003-02-07 08:20:00 51°13.379 2°51.496 241.9 13.2 239.7 10.2
2003-02-07 08:20:05 51°13.368 2°51.473 236.7 13.1 237 10
2003-02-07 08:20:08 51°13.361 2°51.46 231.7 13.1 231.9 10.3
2003-02-07 08:20:15 51°13.344 2°51.43 231.3 13.1 230.5 10.3
2003-02-07 08:20:20 51°13.334 2°51.406 235.3 13.1 230.5 10.2
2003-02-07 08:20:25 51°13.324 2°51.382 238 13.1 234.5 10.2
2003-02-07 08:20:30 51°13.314 2°51.357 239.3 13.2 236.5 10.1
2003-02-07 08:20:34 51°13.306 2°51.337 241.7 13.2 238.3 10.4
2003-02-07 08:20:40 51°13.296 2°51.307 243.1 13.2 238.7 10.3
2003-02-07 08:20:45 51°13.286 2°51.282 242.1 13.2 239.9 10.1
2003-02-07 08:20:50 51°13.276 2°51.257 241.9 13.2 239.1 10.2
2003-02-07 08:20:55 51°13.267 2°51.231 242.1 13.3 239.2 10.3
2003-02-07 08:20:58 51°13.261 2°51.216 241.8 13.3 238.9 10.2
2003-02-07 08:21:04 51°13.25 2°51.186 241.4 13.3 238.9 10.3
2003-02-07 08:21:08 51°13.242 2°51.166 241.3 13.3 238.6 10.3
2003-02-07 08:21:15 51°13.229 2°51.131 241.6 13.3 238.7 10.2
2003-02-07 08:21:19 51°13.221 2°51.111 241.6 13.3 239 10.1
2003-02-07 08:21:25 51°13.209 2°51.081 241.3 13.3 239 10.4
2003-02-07 08:21:30 51°13.2 2°51.055 241.4 13.3 238.7 10.3
2003-02-07 08:21:35 51°13.19 2°51.03 241.4 13.3 238.6 10.1
2003-02-07 08:21:40 51°13.181 2°51.005 241.6 13.3 238.7 10.2
2003-02-07 08:21:45 51°13.171 2°50.98 241.2 13.3 238.4 10.4
2003-02-07 08:21:49 51°13.163 2°50.96 241.6 13.3 238.7 10.3
2003-02-07 08:21:55 51°13.152 2°50.93 241.6 13.3 238.8 10.4
2003-02-07 08:21:59 51°13.144 2°50.91 241.6 13.3 238.8 10.2
2003-02-07 08:22:05 51°13.133 2°50.879 241.6 13.3 238.9 10.5
2003-02-07 08:22:10 51°13.123 2°50.854 241.9 13.3 239.2 10.3
2003-02-07 08:22:15 51°13.114 2°50.829 242.1 13.3 239.2 10.3
2003-02-07 08:22:19 51°13.106 2°50.808 242.1 13.3 239.5 10.2
2003-02-07 08:22:25 51°13.095 2°50.778 242.1 13.3 239.5 10.1
2003-02-07 08:22:28 51°13.089 2°50.763 241.9 13.3 239.4 10.4
2003-02-07 08:22:34 51°13.078 2°50.733 241.8 13.3 239.2 10.4
2003-02-07 08:22:37 51°13.072 2°50.718 241.4 13.3 238.9 10.3
2003-02-07 08:22:45 51°13.057 2°50.677 241.5 13.3 238.7 10.3
2003-02-07 08:22:48 51°13.051 2°50.662 241.8 13.4 239 10.4
2003-02-07 08:22:54 51°13.04 2°50.632 242.2 13.4 239.1 10.4
2003-02-07 08:22:59 51°13.03 2°50.606 241.8 13.3 239.2 10.3
2003-02-07 08:23:05 51°13.018 2°50.576 241.7 13.3 239 10.3
2003-02-07 08:23:09 51°13.011 2°50.556 242 13.3 239 10.3
2003-02-07 08:23:15 51°13 2°50.525 241.8 13.4 239.2 10.4
2003-02-07 08:23:20 51°12.99 2°50.5 241.6 13.4 239 10.5
2003-02-07 08:23:25 51°12.981 2°50.475 242 13.4 239 10.3
2003-02-07 08:23:29 51°12.973 2°50.454 241.8 13.4 239.4 10.4
2003-02-07 08:23:35 51°12.962 2°50.424 241.8 13.3 239.2 10.4
2003-02-07 08:23:40 51°12.952 2°50.399 242.1 13.4 239.4 10.2
2003-02-07 08:23:44 51°12.945 2°50.379 241.9 13.4 239.3 10.4
2003-02-07 08:23:49 51°12.935 2°50.353 241.9 13.4 239.3 10.3
2003-02-07 08:23:55 51°12.924 2°50.323 241.8 13.3 239.2 10.2
2003-02-07 08:24:00 51°12.914 2°50.298 241.4 13.3 238.9 10.5
2003-02-07 08:24:04 51°12.906 2°50.278 241.5 13.3 238.7 10.1
2003-02-07 08:24:10 51°12.895 2°50.247 241.6 13.3 238.9 10.2
2003-02-07 08:24:15 51°12.885 2°50.222 241.6 13.3 238.8 10.4
2003-02-07 08:24:19 51°12.878 2°50.202 242 13.4 238.9 10.4
2003-02-07 08:24:25 51°12.866 2°50.171 242.2 13.4 239.3 10.5
2003-02-07 08:24:29 51°12.859 2°50.151 242.2 13.4 239.3 10.4
2003-02-07 08:24:35 51°12.848 2°50.12 242.2 13.3 239.6 10.3
2003-02-07 08:24:40 51°12.838 2°50.095 242.1 13.4 239.4 10.5
2003-02-07 08:24:45 51°12.829 2°50.07 242.3 13.4 239.5 10.5
2003-02-07 08:24:50 51°12.819 2°50.044 241.8 13.4 239.4 10.3
2003-02-07 08:24:55 51°12.81 2°50.019 242 13.4 239.4 10.3
2003-02-07 08:24:58 51°12.804 2°50.004 242 13.4 239.3 10.3
2003-02-07 08:25:05 51°12.79 2°49.968 242.2 13.4 239.2 10.3
2003-02-07 08:25:10 51°12.781 2°49.942 242.2 13.4 239.5 10.3
2003-02-07 08:25:15 51°12.771 2°49.917 242.1 13.4 239.3 10.4
2003-02-07 08:25:20 51°12.762 2°49.892 242.1 13.4 239.3 10.6
2003-02-07 08:25:24 51°12.754 2°49.871 242.2 13.3 239.3 10.4
2003-02-07 08:25:28 51°12.747 2°49.851 242 13.3 239.3 10.6
2003-02-07 08:25:35 51°12.733 2°49.815 241.9 13.3 239.3 10.2
2003-02-07 08:25:39 51°12.726 2°49.795 242.2 13.4 239.2 10.4
2003-02-07 08:25:45 51°12.715 2°49.765 242.4 13.4 239.3 10.5
2003-02-07 08:25:48 51°12.709 2°49.75 242 13.3 239.5 10.4
2003-02-07 08:25:55 51°12.696 2°49.714 242.1 13.3 239.4 10.5
2003-02-07 08:25:59 51°12.689 2°49.694 242.4 13.3 239.4 10.4
2003-02-07 08:26:05 51°12.677 2°49.663 242.2 13.4 239.2 10.3
2003-02-07 08:26:10 51°12.668 2°49.638 242.1 13.4 239.6 10.4
2003-02-07 08:26:14 51°12.66 2°49.617 241.6 13.4 239.1 10.3
2003-02-07 08:26:20 51°12.649 2°49.587 241.8 13.4 239.3 10.4
2003-02-07 08:26:25 51°12.639 2°49.561 242 13.4 239.4 10.4
2003-02-07 08:26:28 51°12.633 2°49.546 242.3 13.4 239.3 10.4
2003-02-07 08:26:35 51°12.62 2°49.51 242.3 13.4 239.3 10.5
2003-02-07 08:26:40 51°12.611 2°49.485 242.1 13.4 239.3 10.5
2003-02-07 08:26:45 51°12.601 2°49.46 242 13.4 239.4 10.4
2003-02-07 08:26:49 51°12.594 2°49.439 242.2 13.4 239.5 10.3
2003-02-07 08:26:55 51°12.583 2°49.408 242.4 13.4 239.5 10.4
2003-02-07 08:27:00 51°12.573 2°49.383 242.2 13.4 239.5 10.5
2003-02-07 08:27:05 51°12.564 2°49.357 242 13.4 239.5 10.4
2003-02-07 08:27:09 51°12.556 2°49.337 242.2 13.4 239.6 10.4
2003-02-07 08:27:15 51°12.545 2°49.307 242.1 13.4 239.6 10.4
2003-02-07 08:27:19 51°12.537 2°49.286 242.4 13.4 239.7 10.4
2003-02-07 08:27:25 51°12.526 2°49.255 242.4 13.4 239.7 10.4
2003-02-07 08:27:28 51°12.521 2°49.24 242.3 13.4 239.8 10.4
2003-02-07 08:27:35 51°12.507 2°49.204 242.2 13.4 239.8 10.5
2003-02-07 08:27:40 51°12.498 2°49.179 241.9 13.4 239.8 10.3
2003-02-07 08:27:45 51°12.488 2°49.154 241.9 13.4 239.5 10.4
2003-02-07 08:27:48 51°12.483 2°49.138 242 13.4 239.5 10.6
2003-02-07 08:27:55 51°12.47 2°49.103 242.1 13.4 239.4 10.5
2003-02-07 08:28:00 51°12.46 2°49.077 242.4 13.4 239.5 10.5
2003-02-07 08:28:05 51°12.451 2°49.052 242.4 13.3 239.7 10.6
2003-02-07 08:28:09 51°12.443 2°49.032 242.4 13.3 239.8 10.5
2003-02-07 08:28:15 51°12.432 2°49.001 242.1 13.3 239.8 10.5
2003-02-07 08:28:20 51°12.423 2°48.976 241.9 13.3 239.5 10.4
2003-02-07 08:28:25 51°12.413 2°48.951 241.7 13.3 239.2 10.4
2003-02-07 08:28:29 51°12.405 2°48.93 241.7 13.3 239.3 10.3
2003-02-07 08:28:34 51°12.396 2°48.905 242.4 13.3 239.6 10.3
2003-02-07 08:28:40 51°12.386 2°48.874 243.1 13.3 239.9 10.4
2003-02-07 08:28:44 51°12.378 2°48.854 243.2 13.3 240.5 10.4
2003-02-07 08:28:50 51°12.368 2°48.823 243.5 13.3 240.6 10.4
2003-02-07 08:28:55 51°12.359 2°48.798 243.1 13.3 240.6 10.5
2003-02-07 08:29:00 51°12.35 2°48.772 243.3 13.3 240.5 10.5
2003-02-07 08:29:04 51°12.343 2°48.751 243.8 13.3 240.9 10.4
2003-02-07 08:29:09 51°12.334 2°48.726 243.4 13.3 240.8 10.4
2003-02-07 08:29:15 51°12.323 2°48.695 243.2 13.3 240.6 10.4
2003-02-07 08:29:19 51°12.316 2°48.674 243.2 13.3 240.6 10.6
2003-02-07 08:29:24 51°12.307 2°48.649 243.4 13.3 240.5 10.5
2003-02-07 08:29:29 51°12.298 2°48.623 243.1 13.3 240.5 10.5
2003-02-07 08:29:35 51°12.287 2°48.593 243.3 13.3 240.5 10.5
2003-02-07 08:29:40 51°12.278 2°48.567 243.3 13.3 240.5 10.4
2003-02-07 08:29:45 51°12.269 2°48.541 243.2 13.3 240.6 10.7
2003-02-07 08:29:50 51°12.26 2°48.516 243.2 13.3 240.6 10.7
2003-02-07 08:29:55 51°12.251 2°48.49 243 13.3 240.3 10.5
2003-02-07 08:30:00 51°12.241 2°48.465 243.1 13.3 240.3 10.4
2003-02-07 08:30:05 51°12.232 2°48.439 243.2 13.3 240.4 10.5
2003-02-07 08:30:10 51°12.222 2°48.413 243.7 13.3 240.4 10.6
2003-02-07 08:30:15 51°12.213 2°48.387 244.2 13.3 240.8 10.4
2003-02-07 08:30:20 51°12.205 2°48.361 244.6 13.3 241.8 10.6
2003-02-07 08:30:25 51°12.196 2°48.335 245 13.4 242 10.5
2003-02-07 08:30:28 51°12.191 2°48.319 245.3 13.4 242.3 10.5
2003-02-07 08:30:34 51°12.181 2°48.288 245.8 13.3 242.9 10.6
2003-02-07 08:30:40 51°12.171 2°48.256 246.1 13.3 242.9 10.6
2003-02-07 08:30:44 51°12.164 2°48.235 246 13.4 243.4 10.5
2003-02-07 08:30:48 51°12.158 2°48.214 245.8 13.4 243.2 10.6
2003-02-07 08:30:54 51°12.147 2°48.183 245.4 13.3 242.6 10.5
2003-02-07 08:31:00 51°12.137 2°48.151 245.2 13.3 242.5 10.5
2003-02-07 08:31:05 51°12.129 2°48.125 245.1 13.3 242.4 10.5
2003-02-07 08:31:10 51°12.12 2°48.099 245 13.3 242.4 10.6
2003-02-07 08:31:15 51°12.111 2°48.073 245.3 13.3 242.5 10.5
2003-02-07 08:31:20 51°12.103 2°48.047 245.3 13.3 242.6 10.5
2003-02-07 08:31:25 51°12.094 2°48.021 245.5 13.3 242.8 10.5
2003-02-07 08:31:29 51°12.087 2°48 245.1 13.3 242.7 10.4
2003-02-07 08:31:35 51°12.077 2°47.969 245.1 13.3 242.5 10.6
2003-02-07 08:31:40 51°12.068 2°47.943 245.2 13.3 242.5 10.7
2003-02-07 08:31:44 51°12.061 2°47.922 245.4 13.3 242.6 10.6
2003-02-07 08:31:49 51°12.053 2°47.896 245.2 13.3 242.6 10.6
2003-02-07 08:31:55 51°12.042 2°47.865 245.3 13.3 242.4 10.5
2003-02-07 08:32:00 51°12.033 2°47.839 245.4 13.4 242.4 10.6
2003-02-07 08:32:03 51°12.028 2°47.823 245.7 13.4 242.6 10.5
2003-02-07 08:32:09 51°12.018 2°47.792 245.3 13.4 242.7 10.5
2003-02-07 08:32:15 51°12.008 2°47.76 245.1 13.4 242.2 10.6
2003-02-07 08:32:19 51°12.002 2°47.739 245.3 13.4 242.2 10.7
2003-02-07 08:32:25 51°11.991 2°47.708 245.4 13.4 242.3 10.3
2003-02-07 08:32:30 51°11.983 2°47.681 245.5 13.4 242.5 10.5
2003-02-07 08:32:35 51°11.974 2°47.655 245.3 13.4 242.4 10.6
2003-02-07 08:32:40 51°11.966 2°47.629 245.3 13.4 242.3 10.5
2003-02-07 08:32:45 51°11.957 2°47.603 245.1 13.4 242.2 10.4
2003-02-07 08:32:49 51°11.95 2°47.582 245.2 13.4 242.2 10.6
2003-02-07 08:32:55 51°11.94 2°47.55 245.5 13.4 242.3 10.6
2003-02-07 08:32:59 51°11.933 2°47.529 245.8 13.4 242.3 10.4
2003-02-07 08:33:05 51°11.923 2°47.498 245.2 13.3 242.4 10.4
2003-02-07 08:33:10 51°11.914 2°47.472 245.4 13.4 242.4 10.5
2003-02-07 08:33:14 51°11.907 2°47.451 245.4 13.4 242.4 10.5
2003-02-07 08:33:19 51°11.898 2°47.425 245.1 13.4 242.4 10.6
2003-02-07 08:33:25 51°11.888 2°47.394 245.9 13.4 242.6 10.3
2003-02-07 08:33:28 51°11.883 2°47.378 246.9 13.4 243.7 10.5
2003-02-07 08:33:35 51°11.872 2°47.34 248.4 13.4 244.6 10.6
2003-02-07 08:33:40 51°11.865 2°47.313 249.2 13.4 246 10.6
2003-02-07 08:33:45 51°11.858 2°47.286 249.5 13.4 246.4 10.4
2003-02-07 08:33:49 51°11.852 2°47.264 250.2 13.4 247 10.5
2003-02-07 08:33:55 51°11.844 2°47.231 250.7 13.4 247.2 10.2
2003-02-07 08:33:59 51°11.838 2°47.209 251 13.4 247.7 10.4
2003-02-07 08:34:05 51°11.83 2°47.176 250.8 13.4 247.7 10.5
2003-02-07 08:34:10 51°11.823 2°47.149 250.8 13.4 247.6 10.5
2003-02-07 08:34:14 51°11.817 2°47.127 250.5 13.4 247.3 10.5
2003-02-07 08:34:20 51°11.808 2°47.094 250.8 13.5 247.5 10.4
2003-02-07 08:34:25 51°11.801 2°47.066 251 13.5 247.6 10.5
2003-02-07 08:34:30 51°11.794 2°47.039 250.6 13.4 247.5 10.5
2003-02-07 08:34:34 51°11.788 2°47.017 250.7 13.5 247.5 10.5
2003-02-07 08:34:40 51°11.78 2°46.984 250.9 13.5 247.6 10.6
2003-02-07 08:34:45 51°11.772 2°46.956 250.6 13.5 247.4 10.4
2003-02-07 08:34:48 51°11.768 2°46.94 250.4 13.5 247.3 10.5
2003-02-07 08:34:55 51°11.758 2°46.901 250.4 13.5 247.3 10.7
2003-02-07 08:34:59 51°11.752 2°46.879 250.7 13.5 247.4 10.7
2003-02-07 08:35:05 51°11.744 2°46.846 250.8 13.5 247.4 10.6
2003-02-07 08:35:09 51°11.738 2°46.824 250.7 13.5 247.4 10.5
2003-02-07 08:35:15 51°11.729 2°46.791 250.6 13.5 247.6 10.5
2003-02-07 08:35:20 51°11.722 2°46.764 250.7 13.5 247.5 10.6
2003-02-07 08:35:25 51°11.715 2°46.737 250.4 13.5 247.3 10.7
2003-02-07 08:35:30 51°11.708 2°46.709 250.4 13.5 247.3 10.7
2003-02-07 08:35:35 51°11.701 2°46.682 250.6 13.5 247.3 10.8
2003-02-07 08:35:38 51°11.697 2°46.665 250.7 13.5 247.5 10.7
2003-02-07 08:35:45 51°11.687 2°46.626 250.7 13.5 247.6 10.7
2003-02-07 08:35:50 51°11.68 2°46.599 250.4 13.5 247.4 10.7
2003-02-07 08:35:55 51°11.673 2°46.572 250.4 13.5 247.3 10.8
2003-02-07 08:36:00 51°11.666 2°46.544 250.4 13.5 247.3 10.7
2003-02-07 08:36:05 51°11.658 2°46.517 250.5 13.5 247.5 10.9
2003-02-07 08:36:10 51°11.651 2°46.489 250.4 13.5 247.3 10.8
2003-02-07 08:36:15 51°11.644 2°46.461 250.4 13.5 247.3 10.9
2003-02-07 08:36:19 51°11.638 2°46.44 250.4 13.5 247.4 10.9
2003-02-07 08:36:25 51°11.629 2°46.407 250.4 13.5 247.3 11
2003-02-07 08:36:29 51°11.624 2°46.385 250.4 13.5 247.3 10.9
2003-02-07 08:36:35 51°11.615 2°46.351 250.6 13.5 247.5 10.9
2003-02-07 08:36:40 51°11.608 2°46.324 250.7 13.5 247.6 10.9
2003-02-07 08:36:45 51°11.601 2°46.296 250.4 13.5 247.6 11.1
2003-02-07 08:36:49 51°11.595 2°46.274 250.4 13.5 247.3 11.1
2003-02-07 08:36:54 51°11.588 2°46.247 250.5 13.5 247.4 11
2003-02-07 08:37:00 51°11.579 2°46.214 250.2 13.5 247.3 10.9
2003-02-07 08:37:04 51°11.573 2°46.192 250.2 13.5 247.2 10.9
2003-02-07 08:37:09 51°11.566 2°46.164 250.7 13.5 247.7 10.9
2003-02-07 08:37:14 51°11.559 2°46.137 250.4 13.5 247.4 11
2003-02-07 08:37:20 51°11.55 2°46.103 250.4 13.5 247.6 11
2003-02-07 08:37:25 51°11.543 2°46.076 250.6 13.5 247.5 11
2003-02-07 08:37:29 51°11.537 2°46.054 250.4 13.5 247.5 10.9
2003-02-07 08:37:35 51°11.528 2°46.021 250.2 13.5 247.5 10.8
2003-02-07 08:37:40 51°11.521 2°45.993 250.4 13.5 247.4 10.8
2003-02-07 08:37:44 51°11.515 2°45.971 250.5 13.5 247.6 11
2003-02-07 08:37:49 51°11.508 2°45.943 250.5 13.5 247.5 10.8
2003-02-07 08:37:55 51°11.499 2°45.91 250.3 13.5 247.7 10.8
2003-02-07 08:38:00 51°11.492 2°45.883 250.5 13.5 247.7 10.8
2003-02-07 08:38:05 51°11.485 2°45.855 250.7 13.6 247.6 10.8
2003-02-07 08:38:09 51°11.479 2°45.833 250.7 13.5 248 11
2003-02-07 08:38:11 51°11.476 2°45.822 250.4 13.5 247.5 10.9
2003-02-07 08:38:18 51°11.466 2°45.783 250.4 13.5 247.7 10.8
2003-02-07 08:38:25 51°11.456 2°45.744 250.3 13.5 247.7 10.9
2003-02-07 08:38:30 51°11.449 2°45.717 250.7 13.5 247.8 11
2003-02-07 08:38:35 51°11.442 2°45.689 250.7 13.5 247.8 10.8
2003-02-07 08:38:39 51°11.436 2°45.667 250.3 13.5 247.8 10.8
2003-02-07 08:38:45 51°11.427 2°45.633 250.4 13.6 247.6 10.9
2003-02-07 08:38:49 51°11.422 2°45.611 250.5 13.6 247.6 10.8
2003-02-07 08:38:55 51°11.413 2°45.578 250.5 13.6 247.6 10.9
2003-02-07 08:38:59 51°11.407 2°45.556 250.4 13.5 247.6 11
2003-02-07 08:39:05 51°11.399 2°45.523 250.4 13.5 247.6 10.9
2003-02-07 08:39:09 51°11.393 2°45.501 250.7 13.5 247.6 10.9
2003-02-07 08:39:15 51°11.385 2°45.468 250.4 13.6 247.8 10.7
2003-02-07 08:39:20 51°11.377 2°45.44 250.4 13.5 247.5 10.8
2003-02-07 08:39:25 51°11.37 2°45.412 250.4 13.5 247.7 10.8
2003-02-07 08:39:30 51°11.363 2°45.385 250.3 13.5 247.7 10.8
2003-02-07 08:39:34 51°11.358 2°45.362 250.5 13.5 247.7 10.8
2003-02-07 08:39:40 51°11.349 2°45.329 250.1 13.5 247.7 10.8
2003-02-07 08:39:45 51°11.342 2°45.302 250.3 13.5 247.6 10.9
2003-02-07 08:39:50 51°11.334 2°45.274 250.4 13.6 247.6 10.9
2003-02-07 08:39:55 51°11.328 2°45.246 250.8 13.6 247.7 10.7
2003-02-07 08:39:59 51°11.322 2°45.224 250.4 13.6 247.7 10.8
2003-02-07 08:40:05 51°11.313 2°45.191 250.4 13.5 247.6 10.8
2003-02-07 08:40:08 51°11.309 2°45.175 250.4 13.5 247.5 10.6
2003-02-07 08:40:14 51°11.3 2°45.141 250.6 13.6 247.7 10.8
2003-02-07 08:40:20 51°11.292 2°45.108 250.8 13.6 248 10.7
2003-02-07 08:40:25 51°11.284 2°45.08 250.5 13.6 247.6 10.6
2003-02-07 08:40:30 51°11.277 2°45.053 250.1 13.5 247.4 10.7
2003-02-07 08:40:35 51°11.27 2°45.025 249.9 13.6 247.2 10.6
2003-02-07 08:40:40 51°11.262 2°44.997 250.3 13.6 247.4 10.6
2003-02-07 08:40:44 51°11.257 2°44.975 250.5 13.6 247.5 10.7
2003-02-07 08:40:50 51°11.248 2°44.942 250.7 13.6 247.9 10.6
2003-02-07 08:40:55 51°11.241 2°44.914 250.4 13.5 247.6 10.7
2003-02-07 08:41:00 51°11.234 2°44.887 250.3 13.5 247.7 10.7
2003-02-07 08:41:05 51°11.227 2°44.859 250.4 13.6 247.5 10.7
2003-02-07 08:41:10 51°11.22 2°44.831 250.4 13.6 247.5 10.7
2003-02-07 08:41:15 51°11.213 2°44.804 250.8 13.6 247.7 10.6
2003-02-07 08:41:20 51°11.205 2°44.776 250.5 13.6 247.7 10.6
2003-02-07 08:41:25 51°11.198 2°44.748 250.1 13.6 247.4 10.8
2003-02-07 08:41:28 51°11.194 2°44.732 250.2 13.6 247.4 10.6
2003-02-07 08:41:34 51°11.185 2°44.699 249.8 13.5 247.3 10.6
2003-02-07 08:41:39 51°11.177 2°44.671 250.7 13.6 247.4 10.7
2003-02-07 08:41:45 51°11.169 2°44.638 250.6 13.6 248 10.6
2003-02-07 08:41:49 51°11.163 2°44.616 250.4 13.6 248 10.6
2003-02-07 08:41:54 51°11.156 2°44.588 250.4 13.5 247.7 10.6
2003-02-07 08:41:59 51°11.149 2°44.56 250.4 13.5 247.7 10.5
2003-02-07 08:42:05 51°11.14 2°44.527 250.4 13.6 247.6 10.6
2003-02-07 08:42:10 51°11.133 2°44.499 250.4 13.6 247.9 10.7
2003-02-07 08:42:15 51°11.126 2°44.472 250.7 13.6 247.8 10.6
2003-02-07 08:42:20 51°11.119 2°44.444 250.8 13.6 248 10.7
2003-02-07 08:42:25 51°11.112 2°44.416 250.5 13.5 247.9 10.5
2003-02-07 08:42:29 51°11.106 2°44.394 250.3 13.5 247.6 10.6
2003-02-07 08:42:35 51°11.098 2°44.361 249.8 13.5 247.4 10.5
2003-02-07 08:42:39 51°11.092 2°44.339 250.4 13.5 247.4 10.5
2003-02-07 08:42:45 51°11.084 2°44.305 251.9 13.5 248.4 10.4
2003-02-07 08:42:50 51°11.077 2°44.277 252.4 13.5 248.4 10.5
2003-02-07 08:42:55 51°11.071 2°44.249 253.1 13.5 249.9 10.5
2003-02-07 08:43:00 51°11.065 2°44.221 253.5 13.5 250.4 10.6
2003-02-07 08:43:05 51°11.058 2°44.193 253.8 13.5 250.5 10.5
2003-02-07 08:43:10 51°11.053 2°44.164 254.2 13.5 251.1 10.5
2003-02-07 08:43:15 51°11.047 2°44.136 254.2 13.5 251.1 10.7
2003-02-07 08:43:20 51°11.04 2°44.108 254 13.5 251.1 10.6
2003-02-07 08:43:25 51°11.034 2°44.08 253.7 13.6 250.6 10.5
2003-02-07 08:43:30 51°11.028 2°44.052 253.7 13.5 250.8 10.6
2003-02-07 08:43:35 51°11.022 2°44.024 253.3 13.5 250.4 10.6
2003-02-07 08:43:40 51°11.015 2°43.995 253.3 13.5 250.4 10.7
2003-02-07 08:43:44 51°11.01 2°43.973 253.5 13.5 250.3 10.7
2003-02-07 08:43:48 51°11.005 2°43.951 253.3 13.5 250.5 10.7
2003-02-07 08:43:55 51°10.997 2°43.911 253.3 13.5 250.5 10.6
2003-02-07 08:43:59 51°10.992 2°43.889 253.5 13.5 250.5 10.6
2003-02-07 08:44:05 51°10.984 2°43.855 253.9 13.5 250.5 10.5
2003-02-07 08:44:10 51°10.978 2°43.827 253.5 13.5 250.5 10.6
2003-02-07 08:44:15 51°10.972 2°43.799 253.5 13.4 250.5 10.6
2003-02-07 08:44:20 51°10.965 2°43.771 253.3 13.5 250.3 10.8
2003-02-07 08:44:25 51°10.959 2°43.742 253.2 13.5 250.2 10.6
2003-02-07 08:44:29 51°10.953 2°43.719 253 13.8 250.1 10.6
2003-02-07 08:44:35 51°10.945 2°43.684 253.2 13.9 250 10.4
2003-02-07 08:44:40 51°10.938 2°43.654 253.3 14.1 250.2 10.6
2003-02-07 08:44:44 51°10.934 2°43.63 253.5 14.3 250.7 10.3
2003-02-07 08:44:50 51°10.925 2°43.595 253.5 14.3 250.7 10.5
2003-02-07 08:44:55 51°10.918 2°43.565 253.1 14.4 250.1 10.4
2003-02-07 08:45:00 51°10.912 2°43.534 253.6 14.5 250.5 10.5
2003-02-07 08:45:05 51°10.905 2°43.504 253.7 14.5 250.5 10.4
2003-02-07 08:45:09 51°10.9 2°43.48 253.5 14.5 250.7 10.5
2003-02-07 08:45:14 51°10.893 2°43.45 253.3 14.5 250.5 10.2
2003-02-07 08:45:20 51°10.885 2°43.413 253.6 14.6 250.6 10.5
2003-02-07 08:45:24 51°10.88 2°43.388 253.8 14.7 251 10.5
2003-02-07 08:45:28 51°10.875 2°43.364 253.9 14.7 251.2 10.5
2003-02-07 08:45:35 51°10.866 2°43.321 253.9 14.7 251.2 10.6
2003-02-07 08:45:40 51°10.859 2°43.29 253.7 14.6 251.1 10.5
2003-02-07 08:45:45 51°10.852 2°43.26 253.6 14.6 251 10.5
2003-02-07 08:45:48 51°10.848 2°43.242 253.3 14.7 250.7 10.5
2003-02-07 08:45:54 51°10.84 2°43.205 253.3 14.7 250.6 10.4
2003-02-07 08:46:00 51°10.832 2°43.168 253.3 14.7 250.6 10.6
2003-02-07 08:46:05 51°10.825 2°43.137 253.6 14.7 250.8 10.5
2003-02-07 08:46:09 51°10.82 2°43.113 253.7 14.7 250.9 10.5
2003-02-07 08:46:14 51°10.813 2°43.082 253.8 14.7 251 10.5
2003-02-07 08:46:20 51°10.805 2°43.045 254 14.7 251 10.4
2003-02-07 08:46:24 51°10.8 2°43.021 253.5 14.7 250.7 10.4
2003-02-07 08:46:30 51°10.792 2°42.984 253.5 14.7 250.9 10.6
2003-02-07 08:46:35 51°10.785 2°42.953 253.4 14.7 250.9 10.4
2003-02-07 08:46:40 51°10.778 2°42.922 253.4 14.7 250.8 10.4
2003-02-07 08:46:44 51°10.773 2°42.898 254 14.7 250.8 10.5
2003-02-07 08:46:50 51°10.765 2°42.861 254.3 14.7 251.6 10.5
2003-02-07 08:46:55 51°10.759 2°42.83 254.9 14.7 251.7 10.5
2003-02-07 08:46:59 51°10.754 2°42.805 255.5 14.7 252.3 10.5
2003-02-07 08:47:04 51°10.748 2°42.774 255.6 14.8 252.7 10.6
2003-02-07 08:47:10 51°10.741 2°42.737 255.7 14.8 252.7 10.5
2003-02-07 08:47:15 51°10.735 2°42.706 255.5 14.7 252.6 10.7
2003-02-07 08:47:19 51°10.73 2°42.681 255.5 14.7 252.8 10.5
2003-02-07 08:47:25 51°10.722 2°42.644 255.3 14.8 252.4 10.4
2003-02-07 08:47:29 51°10.718 2°42.619 255.7 14.8 252.8 10.4
2003-02-07 08:47:34 51°10.712 2°42.588 255.5 14.8 252.7 10.5
2003-02-07 08:47:40 51°10.704 2°42.551 255.5 14.7 252.9 10.6
2003-02-07 08:47:44 51°10.699 2°42.526 255.7 14.7 252.7 10.5
2003-02-07 08:47:49 51°10.693 2°42.495 256 14.7 252.7 10.5
2003-02-07 08:47:55 51°10.686 2°42.457 255.7 14.7 252.7 10.5
2003-02-07 08:47:58 51°10.683 2°42.439 255.6 14.8 252.6 10.6
2003-02-07 08:48:05 51°10.674 2°42.395 255.5 14.7 252.6 10.6
2003-02-07 08:48:09 51°10.669 2°42.371 255.2 14.7 252.6 10.5
2003-02-07 08:48:14 51°10.663 2°42.339 255.6 14.8 252.7 10.6
2003-02-07 08:48:20 51°10.656 2°42.302 255.8 14.8 252.7 10.5
2003-02-07 08:48:25 51°10.65 2°42.27 255.8 14.8 252.9 10.5
2003-02-07 08:48:30 51°10.644 2°42.24 255.6 14.8 252.8 10.6
2003-02-07 08:48:34 51°10.638 2°42.215 255.3 14.7 252.5 10.6
2003-02-07 08:48:39 51°10.633 2°42.184 255.4 14.7 252.7 10.6
2003-02-07 08:48:46 51°10.624 2°42.14 255.6 14.8 252.8 10.7
2003-02-07 08:48:49 51°10.62 2°42.121 255.6 14.8 252.8 10.6
2003-02-07 08:48:52 51°10.617 2°42.102 255.5 14.8 252.8 10.7
2003-02-07 08:49:01 51°10.606 2°42.047 255.4 14.8 252.6 10.7
2003-02-07 08:49:06 51°10.599 2°42.016 255.3 14.7 252.7 10.8
2003-02-07 08:49:10 51°10.595 2°41.991 255.4 14.7 252.8 10.7
2003-02-07 08:49:16 51°10.587 2°41.953 255.4 14.8 252.9 10.6
2003-02-07 08:49:20 51°10.582 2°41.929 255.4 14.8 252.9 10.7
2003-02-07 08:49:26 51°10.575 2°41.891 255.2 14.8 252.9 10.6
2003-02-07 08:49:30 51°10.57 2°41.867 255.3 14.7 252.7 10.7
2003-02-07 08:49:35 51°10.564 2°41.836 255.4 14.7 252.9 10.7
2003-02-07 08:49:40 51°10.558 2°41.805 255.5 14.7 253 10.7
2003-02-07 08:49:46 51°10.551 2°41.768 255.2 14.7 253 10.8
2003-02-07 08:49:50 51°10.546 2°41.743 255.2 14.7 252.6 10.8
2003-02-07 08:49:56 51°10.539 2°41.706 255.4 14.7 252.5 10.8
2003-02-07 08:50:00 51°10.534 2°41.681 255.4 14.7 252.8 10.9
2003-02-07 08:50:06 51°10.527 2°41.643 255.2 14.7 252.6 10.7
2003-02-07 08:50:07 51°10.525 2°41.637 255.3 14.8 252.7 10.7
2003-02-07 08:50:16 51°10.515 2°41.581 255.7 14.8 253.1 10.8
2003-02-07 08:50:20 51°10.51 2°41.556 255.6 14.7 253 10.9
2003-02-07 08:50:25 51°10.504 2°41.525 255.5 14.7 253.1 10.7
2003-02-07 08:50:28 51°10.5 2°41.507 255.2 14.7 252.7 10.7
2003-02-07 08:50:36 51°10.491 2°41.457 255.4 14.7 253 10.9
2003-02-07 08:50:40 51°10.486 2°41.432 255.7 14.8 253.2 10.8
2003-02-07 08:50:46 51°10.479 2°41.394 255.7 14.8 253.2 10.8
2003-02-07 08:50:50 51°10.474 2°41.369 255.9 14.8 253.2 10.8
2003-02-07 08:50:56 51°10.467 2°41.332 255.6 14.8 253.2 10.7
2003-02-07 08:51:00 51°10.462 2°41.307 255.5 14.7 253.2 10.8
2003-02-07 08:51:06 51°10.455 2°41.27 255.2 14.7 252.9 10.8
2003-02-07 08:51:10 51°10.45 2°41.245 255.3 14.7 252.9 10.9
2003-02-07 08:51:16 51°10.443 2°41.207 255.4 14.8 252.9 10.8
2003-02-07 08:51:20 51°10.439 2°41.182 255.5 14.8 253.2 10.8
2003-02-07 08:51:26 51°10.431 2°41.145 255.4 14.8 253.1 10.9
2003-02-07 08:51:30 51°10.427 2°41.12 255.3 14.8 252.9 10.9
2003-02-07 08:51:35 51°10.421 2°41.089 255.3 14.8 252.9 10.8
2003-02-07 08:51:40 51°10.415 2°41.057 255.1 14.8 252.9 10.7
2003-02-07 08:51:46 51°10.407 2°41.02 255.1 14.8 252.9 10.9
2003-02-07 08:51:50 51°10.403 2°40.995 255.4 14.8 252.9 10.9
2003-02-07 08:51:55 51°10.396 2°40.964 255.4 14.8 252.9 11
2003-02-07 08:51:59 51°10.392 2°40.938 255.4 14.8 252.9 10.9
2003-02-07 08:52:06 51°10.383 2°40.895 255.2 14.8 252.8 10.9
2003-02-07 08:52:10 51°10.378 2°40.87 255.1 14.8 252.8 11.1
2003-02-07 08:52:15 51°10.372 2°40.839 254.9 14.8 252.6 11.1
2003-02-07 08:52:20 51°10.366 2°40.807 255.3 14.8 253 11
2003-02-07 08:52:26 51°10.359 2°40.77 255.4 14.8 252.9 10.9
2003-02-07 08:52:30 51°10.354 2°40.745 255.4 14.8 253 11
2003-02-07 08:52:36 51°10.347 2°40.707 255.7 14.9 253.1 10.9
2003-02-07 08:52:37 51°10.346 2°40.701 255.4 14.8 252.9 10.9
2003-02-07 08:52:46 51°10.335 2°40.644 255.4 14.8 252.9 11.1
2003-02-07 08:52:50 51°10.33 2°40.62 255.1 14.8 252.6 11
2003-02-07 08:52:56 51°10.323 2°40.582 255.2 14.8 253 11
2003-02-07 08:52:58 51°10.32 2°40.569 255.4 14.8 252.9 10.9
2003-02-07 08:53:05 51°10.312 2°40.526 255.4 14.8 252.9 11.2
2003-02-07 08:53:10 51°10.306 2°40.494 255.4 14.8 253 11.2
2003-02-07 08:53:16 51°10.298 2°40.457 255.4 14.8 253 11.1
2003-02-07 08:53:20 51°10.293 2°40.432 255.3 14.8 252.9 11.1
2003-02-07 08:53:26 51°10.286 2°40.394 255.3 14.8 252.9 11.2
2003-02-07 08:53:30 51°10.281 2°40.369 255.4 14.8 253.1 11.2
2003-02-07 08:53:35 51°10.275 2°40.338 255.6 14.8 253.1 11.2
2003-02-07 08:53:40 51°10.269 2°40.306 255.5 14.8 253.2 11.2
2003-02-07 08:53:46 51°10.262 2°40.269 255.3 14.9 253 11.3
2003-02-07 08:53:50 51°10.257 2°40.244 255.7 14.9 253 11.3
2003-02-07 08:53:56 51°10.25 2°40.206 255.5 14.9 253 11.4
2003-02-07 08:54:00 51°10.245 2°40.181 255.5 14.9 253.2 11.3
2003-02-07 08:54:06 51°10.238 2°40.143 255.6 14.9 253.2 11.4
2003-02-07 08:54:10 51°10.233 2°40.118 255.4 14.9 253.2 11.3
2003-02-07 08:54:16 51°10.226 2°40.08 255.4 14.9 253.1 11.1
2003-02-07 08:54:20 51°10.221 2°40.055 255.3 14.9 253.1 11.5
2003-02-07 08:54:26 51°10.214 2°40.017 255.4 14.9 253.2 11.4
2003-02-07 08:54:30 51°10.209 2°39.992 255.4 14.8 253.1 11.4
2003-02-07 08:54:35 51°10.203 2°39.961 255.1 14.8 253.2 11.5
2003-02-07 08:54:40 51°10.197 2°39.93 254.9 14.8 252.8 11.5
2003-02-07 08:54:46 51°10.19 2°39.892 255.3 14.8 252.9 11.5
2003-02-07 08:54:50 51°10.185 2°39.867 255.2 14.8 252.9 11.6
2003-02-07 08:54:55 51°10.179 2°39.836 255 14.8 253 11.7
2003-02-07 08:54:59 51°10.174 2°39.811 255.3 14.8 253.1 11.5
2003-02-07 08:55:06 51°10.166 2°39.767 255.4 14.8 253.2 11.7
2003-02-07 08:55:10 51°10.161 2°39.742 255.5 14.8 253.4 11.8
2003-02-07 08:55:16 51°10.154 2°39.704 255.4 14.8 253.2 11.7
2003-02-07 08:55:23 51°10.146 2°39.66 255.1 14.8 253 11.9
2003-02-07 08:55:30 51°10.138 2°39.617 255 14.8 253 11.9
2003-02-07 08:55:36 51°10.131 2°39.579 255.4 14.8 253.2 11.9
2003-02-07 08:55:40 51°10.126 2°39.554 255.4 14.8 253.2 11.8
2003-02-07 08:55:46 51°10.119 2°39.516 255.4 14.8 253.4 11.9
2003-02-07 08:55:50 51°10.114 2°39.491 255 14.8 253.1 11.9
2003-02-07 08:55:52 51°10.111 2°39.479 255 14.8 253 12
2003-02-07 08:56:01 51°10.101 2°39.422 255.2 14.8 253.3 12.1
2003-02-07 08:56:07 51°10.094 2°39.385 255.4 14.9 253.4 12.1
2003-02-07 08:56:12 51°10.088 2°39.353 255.4 14.8 253.5 12.2
2003-02-07 08:56:16 51°10.083 2°39.328 255.2 14.8 252.8 12.3
2003-02-07 08:56:23 51°10.074 2°39.285 254.6 14.9 252.2 12.3
2003-02-07 08:56:30 51°10.065 2°39.24 255.1 14.9 252.5 12.4
2003-02-07 08:56:36 51°10.058 2°39.203 255.2 14.9 252.8 12.6
2003-02-07 08:56:40 51°10.053 2°39.178 255.7 14.9 253 12.5
2003-02-07 08:56:46 51°10.046 2°39.14 255.6 14.9 253.4 12.7
2003-02-07 08:56:50 51°10.042 2°39.114 256.3 14.9 253.9 12.6
2003-02-07 08:57:01 51°10.03 2°39.045 257.6 14.9 255 12.7
2003-02-07 08:57:07 51°10.023 2°39.007 257.6 14.9 255 12.9
2003-02-07 08:57:12 51°10.018 2°38.975 257.2 14.9 255 12.9
2003-02-07 08:57:15 51°10.015 2°38.956 257.2 14.9 254.9 12.8
2003-02-07 08:57:21 51°10.008 2°38.918 257 14.9 254.9 12.9
2003-02-07 08:57:26 51°10.003 2°38.886 257.4 14.9 254.9 13
2003-02-07 08:57:32 51°9.997 2°38.848 257.6 14.9 255.1 13.1
2003-02-07 08:57:37 51°9.991 2°38.816 257.5 14.9 255.1 13.1
2003-02-07 08:57:41 51°9.987 2°38.79 257.1 14.9 254.8 13.2
2003-02-07 08:57:47 51°9.981 2°38.753 257 14.9 254.8 13.3
2003-02-07 08:57:52 51°9.975 2°38.721 257.2 14.9 254.9 13.3
2003-02-07 08:58:01 51°9.966 2°38.664 257.6 14.9 255.2 13.3
2003-02-07 08:58:07 51°9.959 2°38.625 257.1 14.9 254.8 13.4
2003-02-07 08:58:12 51°9.954 2°38.593 257 15 254.7 13.5
2003-02-07 08:58:15 51°9.95 2°38.574 257 15 254.7 13.6
2003-02-07 08:58:22 51°9.942 2°38.53 256.9 14.9 254.6 13.7
2003-02-07 08:58:26 51°9.938 2°38.504 257.2 14.9 254.6 13.7
2003-02-07 08:58:32 51°9.932 2°38.466 257.2 15 254.6 13.8
2003-02-07 08:58:37 51°9.926 2°38.434 257.5 15 254.6 13.7
2003-02-07 08:58:42 51°9.921 2°38.402 257.5 15 254.8 13.9
2003-02-07 08:58:46 51°9.916 2°38.377 257.3 15 254.8 14
2003-02-07 08:58:52 51°9.91 2°38.338 257.2 15 254.8 14
2003-02-07 08:58:57 51°9.904 2°38.306 257.2 15 254.6 14.1
2003-02-07 08:59:02 51°9.899 2°38.274 257.5 15 254.8 14.1
2003-02-07 08:59:06 51°9.894 2°38.249 257.4 15 254.9 14
2003-02-07 08:59:12 51°9.888 2°38.211 257.3 15 254.8 14.3
2003-02-07 08:59:15 51°9.885 2°38.193 257.6 14.5 255.1 14.4
2003-02-07 08:59:22 51°9.879 2°38.153 257.5 13.9 255.2 14.5
2003-02-07 08:59:27 51°9.874 2°38.127 257.7 13.9 255.2 14.6
2003-02-07 08:59:32 51°9.87 2°38.104 257.3 11.8 254.5 14.6
2003-02-07 08:59:36 51°9.866 2°38.087 255 11.8 254.5 14.6
2003-02-07 08:59:42 51°9.86 2°38.064 251.5 9.9 249.4 14.6
2003-02-07 08:59:46 51°9.855 2°38.051 245.3 9.5 246.8 14.6
2003-02-07 08:59:52 51°9.847 2°38.033 237.5 9.5 246.8 14.8
2003-02-07 08:59:56 51°9.841 2°38.023 229.7 8.1 232.6 14.7
2003-02-07 09:00:02 51°9.832 2°38.011 222 7.6 227.3 14.6
2003-02-07 09:00:06 51°9.826 2°38.004 214.6 7.6 227.3 14.5
2003-02-07 09:00:10 51°9.82 2°37.998 207.2 6.5 213.5 14.5
2003-02-07 09:00:16 51°9.811 2°37.991 200.4 6.2 207.2 14.5
2003-02-07 09:00:22 51°9.802 2°37.984 196.2 6.2 205.9 14.5
2003-02-07 09:00:27 51°9.794 2°37.979 195.9 6.1 204.3 14.5
2003-02-07 09:00:31 51°9.788 2°37.973 199.9 6 207.4 14.3
2003-02-07 09:00:35 51°9.783 2°37.968 205.5 6 210.8 14.3
2003-02-07 09:00:42 51°9.774 2°37.956 211.9 6 214.9 14.3
2003-02-07 09:00:46 51°9.769 2°37.949 218.4 5.9 221.5 14.3
2003-02-07 09:00:52 51°9.763 2°37.937 224.9 5.8 226.7 14.2
2003-02-07 09:00:56 51°9.759 2°37.929 231.1 5.8 230.8 14.3
2003-02-07 09:01:01 51°9.755 2°37.918 237.6 5.8 230.8 14.3
2003-02-07 09:01:06 51°9.752 2°37.907 243.8 5.6 241.6 14.2
2003-02-07 09:01:12 51°9.749 2°37.894 249.9 5.5 245.8 14.1
2003-02-07 09:01:15 51°9.748 2°37.887 256.1 5.4 251.4 14.2
2003-02-07 09:01:20 51°9.746 2°37.875 262.3 5.4 255.6 14.2
2003-02-07 09:01:26 51°9.745 2°37.862 268.4 5.3 261.2 14.3
2003-02-07 09:01:31 51°9.745 2°37.85 274.6 5.2 266.9 14.2
2003-02-07 09:01:37 51°9.745 2°37.837 280.7 5.2 268.8 14.4
2003-02-07 09:01:40 51°9.746 2°37.83 286.8 5.1 275 14.4
2003-02-07 09:01:46 51°9.748 2°37.817 293.1 5 279 14.6
2003-02-07 09:01:52 51°9.75 2°37.805 299.3 4.9 282.9 14.6
2003-02-07 09:01:56 51°9.752 2°37.798 307 4.8 289.1 14.6
2003-02-07 09:02:01 51°9.755 2°37.789 312 4.8 291.9 14.8
2003-02-07 09:02:06 51°9.759 2°37.78 318.6 4.6 300.3 14.9
2003-02-07 09:02:12 51°9.764 2°37.771 325 4.5 305.8 14.9
2003-02-07 09:02:14 51°9.765 2°37.768 331.4 4.4 310.9 15.1
2003-02-07 09:02:21 51°9.772 2°37.76 337.6 4.2 315.6 15
2003-02-07 09:02:26 51°9.776 2°37.755 344 4.1 322.4 15.1
2003-02-07 09:02:32 51°9.782 2°37.75 350.5 4 324.7 14.9
2003-02-07 09:02:35 51°9.785 2°37.748 357.1 3.8 334.6 15.2
2003-02-07 09:02:42 51°9.791 2°37.746 3.6 3.8 334.6 15.1
2003-02-07 09:02:47 51°9.796 2°37.745 10.2 3.5 348 15.1
2003-02-07 09:02:52 51°9.8 2°37.745 16.8 3.4 353.6 15.3
2003-02-07 09:02:57 51°9.804 2°37.746 23.7 3.2 2.8 15.6
2003-02-07 09:03:01 51°9.808 2°37.747 30.1 3.1 10.2 15.4
2003-02-07 09:03:07 51°9.812 2°37.75 37.1 3 14.9 15.4
2003-02-07 09:03:11 51°9.815 2°37.753 43.6 2.9 24.1 15.6
2003-02-07 09:03:17 51°9.819 2°37.757 49.7 2.9 29.3 15.5
2003-02-07 09:03:22 51°9.821 2°37.762 56 2.7 40.5 15.4
2003-02-07 09:03:27 51°9.823 2°37.767 62.4 2.7 44.1 15.1
2003-02-07 09:03:32 51°9.824 2°37.772 68.4 2.6 57.3 15
2003-02-07 09:03:35 51°9.825 2°37.775 74.6 2.6 67.5 15
2003-02-07 09:03:41 51°9.826 2°37.782 80.5 2.7 74.7 15.1
2003-02-07 09:03:46 51°9.826 2°37.789 84.6 2.8 80.8 15.3
2003-02-07 09:03:51 51°9.827 2°37.795 86.6 2.9 84.5 15.1
2003-02-07 09:03:56 51°9.827 2°37.802 87 3 85.6 15.1
2003-02-07 09:04:01 51°9.827 2°37.809 86 3.1 85.7 15
2003-02-07 09:04:04 51°9.828 2°37.813 84.5 3.2 84.2 15.1
2003-02-07 09:04:12 51°9.829 2°37.825 82 3.3 82.5 15.3
2003-02-07 09:04:17 51°9.83 2°37.832 79.4 3.4 78.4 15.2
2003-02-07 09:04:22 51°9.831 2°37.84 76.5 3.5 75.2 15.2
2003-02-07 09:04:26 51°9.833 2°37.845 73.6 3.5 73.6 15.2
2003-02-07 09:04:31 51°9.835 2°37.853 71.7 3.6 69.6 15.3
2003-02-07 09:04:37 51°9.837 2°37.862 70.4 3.7 67.7 15.3
2003-02-07 09:04:42 51°9.84 2°37.87 69.9 3.8 66.2 15.2
2003-02-07 09:04:46 51°9.841 2°37.876 70.2 3.8 66 15.2
2003-02-07 09:04:51 51°9.844 2°37.884 70.3 4 65.8 15.2
2003-02-07 09:04:56 51°9.846 2°37.893 70.9 4 66.3 15.2
2003-02-07 09:05:02 51°9.848 2°37.902 71.6 4 66.5 15.3
2003-02-07 09:05:06 51°9.85 2°37.909 72.3 4 67 15.4
2003-02-07 09:05:12 51°9.852 2°37.918 73.3 3.9 68.6 15.4
2003-02-07 09:05:16 51°9.854 2°37.924 74.5 3.8 69.2 15.3
2003-02-07 09:05:21 51°9.855 2°37.932 75.8 3.7 70.8 15.4
2003-02-07 09:05:25 51°9.857 2°37.938 76.4 3.6 71.7 15.3
2003-02-07 09:05:31 51°9.858 2°37.947 77.1 3.6 73.2 15.2
2003-02-07 09:05:36 51°9.86 2°37.955 77.2 3.5 73.1 15.2
2003-02-07 09:05:41 51°9.861 2°37.962 77.2 3.5 73.5 15.2
2003-02-07 09:05:44 51°9.862 2°37.966 76.9 3.4 72.1 15.1
2003-02-07 09:05:51 51°9.864 2°37.976 76.2 3.4 72.5 15
2003-02-07 09:05:56 51°9.866 2°37.982 75.4 3.2 70.8 15.1
2003-02-07 09:06:00 51°9.867 2°37.986 74.4 2.9 68.7 15
2003-02-07 09:06:07 51°9.868 2°37.993 73.7 2.4 67.5 15
2003-02-07 09:06:11 51°9.869 2°37.995 73.2 2.1 66.5 15
2003-02-07 09:06:16 51°9.87 2°37.998 73.4 1.8 65.3 14.9
2003-02-07 09:06:22 51°9.871 2°38.001 74.4 1.4 64.6 15
2003-02-07 09:06:26 51°9.871 2°38.004 75.1 1.3 66.2 15
2003-02-07 09:06:32 51°9.872 2°38.007 76 1.3 67.7 14.9
2003-02-07 09:06:36 51°9.873 2°38.009 76.7 1.3 68.7 14.9
2003-02-07 09:06:42 51°9.873 2°38.012 76.9 1.2 67.9 14.9
2003-02-07 09:06:46 51°9.874 2°38.014 77.5 1.2 68.4 15
2003-02-07 09:06:52 51°9.874 2°38.016 77.9 1.1 72.1 15
2003-02-07 09:06:56 51°9.874 2°38.018 78.3 1.1 77.4 14.9
2003-02-07 09:07:02 51°9.875 2°38.021 78.8 1.1 77.7 14.8
2003-02-07 09:07:06 51°9.875 2°38.023 79.2 1.1 75 14.8
2003-02-07 09:07:12 51°9.876 2°38.025 79.6 1 72.3 14.9
2003-02-07 09:07:16 51°9.876 2°38.027 80.1 1 77 14.8
2003-02-07 09:07:22 51°9.876 2°38.029 80.5 1 76.6 14.8
2003-02-07 09:07:26 51°9.876 2°38.031 80.9 0.9 78.7 14.8
2003-02-07 09:07:32 51°9.877 2°38.033 81.2 0.9 76.9 14.8
2003-02-07 09:07:36 51°9.877 2°38.034 81.4 0.9 81.3 14.8
2003-02-07 09:07:41 51°9.877 2°38.036 81.7 0.8 76.4 14.8
2003-02-07 09:07:45 51°9.877 2°38.037 82 0.8 80.3 14.8
2003-02-07 09:07:52 51°9.878 2°38.04 82.2 0.8 77.9 14.8
2003-02-07 09:07:56 51°9.878 2°38.041 82.5 0.8 83 14.8
2003-02-07 09:08:01 51°9.878 2°38.043 82.7 0.7 80.6 14.8
2003-02-07 09:08:04 51°9.878 2°38.044 82.8 0.7 84.4 14.9
2003-02-07 09:08:11 51°9.878 2°38.046 82.9 0.7 80.5 14.9
2003-02-07 09:08:16 51°9.878 2°38.047 83.2 0.7 83.5 14.9
2003-02-07 09:08:21 51°9.878 2°38.049 83.4 0.7 83.3 14.9
2003-02-07 09:08:27 51°9.878 2°38.051 83.4 0.7 86.2 15
2003-02-07 09:08:30 51°9.878 2°38.052 83.6 0.7 85.6 14.9
2003-02-07 09:08:36 51°9.878 2°38.053 83.8 0.6 87.6 14.9
2003-02-07 09:08:42 51°9.878 2°38.055 84 0.6 86.6 14.9
2003-02-07 09:08:46 51°9.878 2°38.056 84.2 0.6 88.5 14.8
2003-02-07 09:08:51 51°9.878 2°38.058 84.5 0.6 86.8 14.8
2003-02-07 09:08:57 51°9.878 2°38.06 84.6 0.6 87.9 14.8
2003-02-07 09:09:01 51°9.878 2°38.061 84.8 0.5 87.9 14.8
2003-02-07 09:09:06 51°9.878 2°38.062 85.1 0.6 87.5 14.8
2003-02-07 09:09:12 51°9.878 2°38.063 85.3 0.5 88.5 14.9
2003-02-07 09:09:17 51°9.878 2°38.064 85.4 0.5 90.8 14.9
2003-02-07 09:09:22 51°9.878 2°38.064 85.8 0.5 89.7 14.8
2003-02-07 09:09:26 51°9.878 2°38.065 86.3 0.5 89.8 14.9
2003-02-07 09:09:32 51°9.878 2°38.066 86.3 0.5 92.1 14.9
2003-02-07 09:09:37 51°9.878 2°38.067 86.7 0.4 91.9 14.9
2003-02-07 09:09:41 51°9.878 2°38.068 87 0.4 93.7 14.9
2003-02-07 09:09:46 51°9.878 2°38.069 87.3 0.4 93.8 14.8
2003-02-07 09:09:52 51°9.878 2°38.07 87.7 0.4 93.8 14.8
2003-02-07 09:09:56 51°9.878 2°38.071 88.1 0.4 95.2 14.8
2003-02-07 09:10:01 51°9.878 2°38.072 88.5 0.4 95.2 14.8
2003-02-07 09:10:06 51°9.878 2°38.072 88.8 0.4 97.7 14.8
2003-02-07 09:10:12 51°9.878 2°38.073 89.2 0.4 97.7 14.8
2003-02-07 09:10:17 51°9.878 2°38.074 89.7 0.4 102.5 14.8
2003-02-07 09:10:21 51°9.878 2°38.075 90 0.4 105.8 14.8
2003-02-07 09:10:27 51°9.878 2°38.076 90.4 0.4 107.2 14.7
2003-02-07 09:10:32 51°9.877 2°38.076 90.9 0.3 107.1 14.7
2003-02-07 09:10:37 51°9.877 2°38.077 91.4 0.3 111.5 14.7
2003-02-07 09:10:42 51°9.877 2°38.078 91.9 0.3 111.5 14.7
2003-02-07 09:10:46 51°9.877 2°38.078 92.4 0.3 113.9 14.7
2003-02-07 09:10:52 51°9.877 2°38.079 92.9 0.3 114 14.8
2003-02-07 09:10:56 51°9.877 2°38.079 93.3 0.3 115.4 14.7
2003-02-07 09:11:01 51°9.876 2°38.08 93.9 0.3 115.4 14.7
2003-02-07 09:11:06 51°9.876 2°38.08 94.6 0.3 124.7 14.8
2003-02-07 09:11:12 51°9.876 2°38.081 95 0.3 125.3 14.7
2003-02-07 09:11:15 51°9.876 2°38.081 95.8 0.3 126.7 14.6
2003-02-07 09:11:22 51°9.875 2°38.082 96.1 0.3 126.7 14.8
2003-02-07 09:11:27 51°9.875 2°38.083 96.7 0.3 130.8 14.7
2003-02-07 09:11:32 51°9.875 2°38.083 97.2 0.3 132.8 14.7
2003-02-07 09:11:37 51°9.874 2°38.084 97.8 0.3 132.8 14.8
2003-02-07 09:11:42 51°9.874 2°38.084 98.5 0.3 137.5 14.7
2003-02-07 09:11:46 51°9.873 2°38.085 99 0.3 141.5 14.7
2003-02-07 09:11:52 51°9.873 2°38.085 99.7 0.3 145.7 14.7
2003-02-07 09:11:57 51°9.873 2°38.085 100.1 0.3 145 14.6
2003-02-07 09:12:01 51°9.872 2°38.086 100.9 0.3 148.5 14.7
2003-02-07 09:12:06 51°9.872 2°38.086 101.5 0.3 149.3 14.7
2003-02-07 09:12:12 51°9.871 2°38.087 102.1 0.3 149.3 14.6
2003-02-07 09:12:16 51°9.871 2°38.087 102.6 0.3 148 14.6
2003-02-07 09:12:21 51°9.87 2°38.087 102.9 0.3 148 14.6
2003-02-07 09:12:26 51°9.87 2°38.087 103.2 0.3 150.4 14.7
2003-02-07 09:12:32 51°9.87 2°38.087 103.5 0.3 150.4 14.6
2003-02-07 09:12:37 51°9.869 2°38.088 103.9 0.3 150.6 14.7
2003-02-07 09:12:40 51°9.869 2°38.088 104.2 0.3 153.3 14.6
2003-02-07 09:12:46 51°9.869 2°38.088 104.5 0.3 155.3 14.6
2003-02-07 09:12:52 51°9.868 2°38.089 104.9 0.3 155.8 14.7
2003-02-07 09:12:56 51°9.868 2°38.089 105.2 0.3 160.3 14.6
2003-02-07 09:13:01 51°9.868 2°38.089 105.7 0.3 165.2 14.5
2003-02-07 09:13:07 51°9.867 2°38.09 106.3 0.3 164.5 14.6
2003-02-07 09:13:12 51°9.867 2°38.09 106.6 0.3 166.5 14.6
2003-02-07 09:13:16 51°9.867 2°38.09 107.4 0.3 169.3 14.5
2003-02-07 09:13:21 51°9.866 2°38.09 107.9 0.3 173.8 14.5
2003-02-07 09:13:27 51°9.866 2°38.09 108.4 0.3 176.9 14.5
2003-02-07 09:13:30 51°9.866 2°38.09 109.2 0.3 177.3 14.5
2003-02-07 09:13:36 51°9.865 2°38.09 110.1 0.3 179.9 14.5
2003-02-07 09:13:41 51°9.864 2°38.09 110.8 0.3 181.2 14.5
2003-02-07 09:13:46 51°9.864 2°38.09 111.5 0.4 183.1 14.5
2003-02-07 09:13:51 51°9.863 2°38.09 112.2 0.4 183.7 14.5
2003-02-07 09:13:57 51°9.863 2°38.09 113 0.4 185.4 14.5
2003-02-07 09:14:01 51°9.862 2°38.09 113.6 0.4 186.2 14.4
2003-02-07 09:14:06 51°9.862 2°38.09 114.3 0.4 186.2 14.5
2003-02-07 09:14:12 51°9.861 2°38.09 115.2 0.4 188.7 14.5
2003-02-07 09:14:15 51°9.861 2°38.089 115.6 0.5 191.3 14.4
2003-02-07 09:14:22 51°9.86 2°38.089 116.3 0.5 191.7 14.5
2003-02-07 09:14:26 51°9.859 2°38.089 117.3 0.5 193.7 14.5
2003-02-07 09:14:32 51°9.858 2°38.089 117.7 0.5 194.6 14.4
2003-02-07 09:14:36 51°9.858 2°38.088 118.6 0.5 195.7 14.5
2003-02-07 09:14:41 51°9.857 2°38.088 119.2 0.5 195.7 14.5
2003-02-07 09:14:46 51°9.856 2°38.087 119.9 0.5 198.6 14.5
2003-02-07 09:14:52 51°9.856 2°38.087 120.4 0.5 198.6 14.5